createdAt,value
2019-02-23T00:02:15.121Z,178.07
2019-02-23T00:04:43.408Z,217.53
2019-02-23T00:07:11.733Z,217.00
2019-02-23T00:09:40.033Z,249.43
2019-02-23T00:12:08.661Z,214.93
2019-02-23T00:14:37.281Z,214.30
2019-02-23T00:17:05.607Z,220.53
2019-02-23T00:19:33.971Z,232.67
2019-02-23T00:22:02.287Z,241.93
2019-02-23T00:24:30.586Z,251.40
2019-02-23T00:26:58.988Z,238.13
2019-02-23T00:29:27.293Z,226.00
2019-02-23T00:31:55.897Z,202.67
2019-02-23T00:34:24.223Z,186.53
2019-02-23T00:36:52.854Z,184.50
2019-02-23T00:39:21.170Z,182.57
2019-02-23T00:41:49.928Z,172.37
2019-02-23T00:44:18.513Z,173.10
2019-02-23T00:46:47.090Z,168.40
2019-02-23T00:49:15.400Z,165.43
2019-02-23T00:51:43.723Z,158.53
2019-02-23T00:54:12.070Z,159.37
2019-02-23T00:56:40.382Z,168.23
2019-02-23T00:59:08.673Z,165.23
2019-02-23T01:01:37.009Z,157.60
2019-02-23T01:04:05.360Z,161.23
2019-02-23T01:06:34.063Z,162.93
2019-02-23T01:09:02.379Z,181.83
2019-02-23T01:11:30.674Z,174.13
2019-02-23T01:13:59.005Z,182.47
2019-02-23T01:16:27.512Z,160.67
2019-02-23T01:18:56.054Z,168.50
2019-02-23T01:21:24.363Z,176.40
2019-02-23T01:23:53.159Z,158.93
2019-02-23T01:26:21.869Z,160.60
2019-02-23T01:28:50.446Z,200.33
2019-02-23T01:31:19.039Z,168.57
2019-02-23T01:33:47.619Z,185.37
2019-02-23T01:36:15.988Z,180.47
2019-02-23T01:38:44.581Z,171.30
2019-02-23T01:41:12.882Z,169.57
2019-02-23T01:43:41.447Z,169.00
2019-02-23T01:46:09.757Z,165.00
2019-02-23T01:48:38.051Z,165.70
2019-02-23T01:51:06.372Z,168.20
2019-02-23T01:53:34.961Z,148.80
2019-02-23T01:56:03.550Z,155.33
2019-02-23T01:58:32.226Z,156.00
2019-02-23T02:01:00.918Z,147.50
2019-02-23T02:03:29.224Z,146.57
2019-02-23T02:05:59.077Z,133.73
2019-02-23T02:08:27.703Z,123.90
2019-02-23T02:10:56.238Z,124.17
2019-02-23T02:13:24.661Z,119.03
2019-02-23T02:15:52.997Z,123.20
2019-02-23T02:18:21.615Z,117.70
2019-02-23T02:20:51.488Z,113.30
2019-02-23T02:23:19.798Z,115.67
2019-02-23T02:25:48.752Z,115.43
2019-02-23T02:31:58.546Z,113.90
2019-02-23T02:34:26.841Z,115.40
2019-02-23T02:36:56.152Z,110.03
2019-02-23T02:39:24.732Z,110.60
2019-02-23T02:41:53.098Z,109.30
2019-02-23T02:44:21.437Z,111.27
2019-02-23T02:46:50.664Z,107.57
2019-02-23T02:49:18.976Z,106.13
2019-02-23T02:51:47.648Z,101.50
2019-02-23T02:54:16.553Z,106.90
2019-02-23T02:56:44.966Z,105.27
2019-02-23T02:59:13.629Z,103.40
2019-02-23T03:01:42.185Z,101.67
2019-02-23T03:04:10.491Z,101.27
2019-02-23T03:06:39.358Z,101.53
2019-02-23T03:09:09.281Z,99.33
2019-02-23T03:11:37.597Z,98.87
2019-02-23T03:14:05.883Z,97.20
2019-02-23T03:16:34.515Z,95.87
2019-02-23T03:19:03.198Z,92.30
2019-02-23T03:21:31.482Z,96.07
2019-02-23T03:23:59.777Z,95.13
2019-02-23T03:26:30.651Z,92.17
2019-02-23T03:28:58.993Z,89.57
2019-02-23T03:31:27.284Z,87.50
2019-02-23T03:33:55.683Z,85.63
2019-02-23T03:36:24.518Z,86.60
2019-02-23T03:38:52.799Z,85.40
2019-02-23T03:41:21.387Z,82.97
2019-02-23T03:43:49.747Z,86.77
2019-02-23T03:46:18.033Z,86.00
2019-02-23T03:48:46.331Z,82.10
2019-02-23T03:51:14.615Z,80.67
2019-02-23T03:53:42.926Z,82.70
2019-02-23T03:56:11.557Z,78.93
2019-02-23T03:58:39.846Z,82.03
2019-02-23T04:01:08.122Z,81.07
2019-02-23T04:03:36.406Z,81.43
2019-02-23T04:06:05.075Z,77.67
2019-02-23T04:08:33.381Z,76.60
2019-02-23T04:11:01.862Z,78.27
2019-02-23T04:13:30.158Z,77.27
2019-02-23T04:15:58.448Z,74.63
2019-02-23T04:18:26.759Z,74.17
2019-02-23T04:21:01.850Z,75.00
2019-02-23T04:23:25.086Z,73.87
2019-02-23T04:25:53.368Z,72.60
2019-02-23T04:28:21.682Z,71.70
2019-02-23T04:30:49.963Z,69.60
2019-02-23T04:33:18.245Z,72.40
2019-02-23T04:35:46.831Z,68.53
2019-02-23T04:38:15.117Z,67.37
2019-02-23T04:40:43.696Z,69.13
2019-02-23T04:43:11.980Z,67.20
2019-02-23T04:45:40.566Z,67.73
2019-02-23T04:48:08.862Z,67.83
2019-02-23T04:50:37.179Z,68.57
2019-02-23T04:53:05.459Z,67.63
2019-02-23T04:55:33.989Z,65.97
2019-02-23T04:58:02.318Z,65.17
2019-02-23T05:00:30.618Z,68.07
2019-02-23T05:02:59.208Z,63.83
2019-02-23T05:05:27.487Z,62.23
2019-02-23T05:07:56.066Z,62.97
2019-02-23T05:10:24.654Z,60.67
2019-02-23T05:12:53.230Z,60.20
2019-02-23T05:15:21.823Z,60.87
2019-02-23T05:17:50.213Z,59.83
2019-02-23T05:20:18.585Z,59.83
2019-02-23T05:22:47.159Z,58.77
2019-02-23T05:25:15.743Z,58.43
2019-02-23T05:27:44.047Z,61.10
2019-02-23T05:30:13.124Z,58.27
2019-02-23T05:32:41.704Z,56.77
2019-02-23T05:35:11.759Z,58.30
2019-02-23T05:37:40.043Z,58.37
2019-02-23T05:40:12.389Z,59.23
2019-02-23T05:42:40.692Z,56.07
2019-02-23T05:45:10.713Z,55.07
2019-02-23T05:47:39.268Z,53.93
2019-02-23T05:50:09.162Z,55.30
2019-02-23T05:52:37.464Z,53.80
2019-02-23T05:55:05.753Z,55.77
2019-02-23T05:57:34.374Z,52.87
2019-02-23T06:00:02.686Z,53.20
2019-02-23T06:02:31.330Z,52.03
2019-02-23T06:04:59.736Z,51.50
2019-02-23T06:07:28.019Z,51.13
2019-02-23T06:09:56.575Z,51.63
2019-02-23T06:12:24.867Z,52.97
2019-02-23T06:14:53.184Z,50.53
2019-02-23T06:17:21.814Z,50.20
2019-02-23T06:19:50.396Z,49.70
2019-02-23T06:22:18.971Z,48.57
2019-02-23T06:24:47.561Z,46.57
2019-02-23T06:27:15.864Z,44.57
2019-02-23T06:29:44.415Z,46.37
2019-02-23T06:32:13.009Z,47.33
2019-02-23T06:34:41.588Z,45.53
2019-02-23T06:37:10.167Z,45.20
2019-02-23T06:39:38.638Z,43.87
2019-02-23T06:42:06.995Z,43.77
2019-02-23T06:44:35.298Z,42.37
2019-02-23T06:47:03.897Z,48.30
2019-02-23T06:49:32.195Z,53.43
2019-02-23T06:52:04.556Z,49.93
2019-02-23T06:54:32.615Z,48.10
2019-02-23T06:57:01.206Z,46.20
2019-02-23T06:59:29.509Z,48.43
2019-02-23T07:01:57.804Z,46.67
2019-02-23T07:04:26.440Z,43.50
2019-02-23T07:06:54.747Z,43.43
2019-02-23T07:09:23.031Z,42.63
2019-02-23T07:11:51.679Z,46.30
2019-02-23T07:14:19.966Z,49.17
2019-02-23T07:16:48.325Z,46.63
2019-02-23T07:19:19.398Z,46.00
2019-02-23T07:21:47.940Z,44.13
2019-02-23T07:24:16.546Z,44.30
2019-02-23T07:26:44.838Z,38.90
2019-02-23T07:29:13.149Z,30.97
2019-02-23T07:31:41.784Z,33.40
2019-02-23T07:34:10.079Z,32.27
2019-02-23T07:36:38.639Z,33.67
2019-02-23T07:39:07.245Z,33.07
2019-02-23T07:41:35.594Z,32.23
2019-02-23T07:44:04.298Z,31.93
2019-02-23T07:46:32.618Z,31.13
2019-02-23T07:49:01.170Z,30.47
2019-02-23T07:51:29.535Z,27.77
2019-02-23T07:53:57.847Z,29.50
2019-02-23T07:56:26.134Z,29.17
2019-02-23T07:58:54.772Z,27.57
2019-02-23T08:01:23.088Z,28.33
2019-02-23T08:03:51.727Z,27.30
2019-02-23T08:06:20.314Z,26.33
2019-02-23T08:08:48.622Z,25.87
2019-02-23T08:11:17.174Z,24.43
2019-02-23T08:13:45.478Z,25.10
2019-02-23T08:16:14.142Z,24.53
2019-02-23T08:18:42.727Z,23.43
2019-02-23T08:21:11.312Z,23.80
2019-02-23T08:23:39.891Z,22.70
2019-02-23T08:26:08.170Z,21.93
2019-02-23T08:28:36.494Z,22.10
2019-02-23T08:31:05.152Z,21.33
2019-02-23T08:33:33.509Z,20.97
2019-02-23T08:36:02.091Z,20.13
2019-02-23T08:38:30.402Z,21.77
2019-02-23T08:40:58.703Z,19.17
2019-02-23T08:43:27.051Z,20.03
2019-02-23T08:45:55.715Z,18.67
2019-02-23T08:48:24.295Z,20.20
2019-02-23T08:50:52.569Z,18.57
2019-02-23T08:53:20.872Z,19.33
2019-02-23T08:55:49.272Z,18.60
2019-02-23T08:58:17.915Z,18.40
2019-02-23T09:00:46.212Z,18.27
2019-02-23T09:03:14.511Z,19.03
2019-02-23T09:05:42.826Z,17.17
2019-02-23T09:08:11.438Z,17.97
2019-02-23T09:10:40.013Z,17.80
2019-02-23T09:13:08.594Z,17.67
2019-02-23T09:15:36.966Z,17.37
2019-02-23T09:18:05.261Z,17.67
2019-02-23T09:20:33.561Z,16.67
2019-02-23T09:23:01.946Z,16.90
2019-02-23T09:25:30.241Z,16.23
2019-02-23T09:27:58.527Z,16.50
2019-02-23T09:30:26.887Z,15.77
2019-02-23T09:32:55.192Z,16.67
2019-02-23T09:35:23.798Z,15.57
2019-02-23T09:37:52.398Z,14.93
2019-02-23T09:40:21.297Z,14.70
2019-02-23T09:42:49.734Z,14.13
2019-02-23T09:45:18.340Z,15.03
2019-02-23T09:47:46.635Z,14.60
2019-02-23T09:50:14.935Z,14.03
2019-02-23T09:52:43.590Z,13.63
2019-02-23T09:55:12.162Z,14.60
2019-02-23T09:57:40.450Z,13.63
2019-02-23T10:00:13.586Z,13.40
2019-02-23T10:02:41.902Z,12.80
2019-02-23T10:05:10.319Z,13.53
2019-02-23T10:07:38.626Z,11.67
2019-02-23T10:10:09.532Z,12.37
2019-02-23T10:12:37.872Z,12.40
2019-02-23T10:15:09.490Z,12.07
2019-02-23T10:17:38.123Z,13.20
2019-02-23T10:20:11.679Z,19.80
2019-02-23T10:22:40.050Z,25.60
2019-02-23T10:25:08.377Z,29.60
2019-02-23T10:27:36.682Z,27.87
2019-02-23T10:30:14.127Z,27.20
2019-02-23T10:32:42.741Z,28.07
2019-02-23T10:35:12.355Z,27.17
2019-02-23T10:37:40.664Z,28.07
2019-02-23T10:40:11.112Z,24.90
2019-02-23T10:42:39.531Z,25.77
2019-02-23T10:45:12.405Z,24.40
2019-02-23T10:47:40.716Z,26.60
2019-02-23T10:50:10.941Z,28.23
2019-02-23T10:52:39.234Z,33.03
2019-02-23T10:55:09.997Z,31.60
2019-02-23T10:57:38.602Z,32.83
2019-02-23T11:00:22.365Z,33.73
2019-02-23T11:02:50.661Z,30.27
2019-02-23T11:05:19.670Z,32.23
2019-02-23T11:07:48.305Z,34.03
2019-02-23T11:10:18.823Z,33.33
2019-02-23T11:12:47.187Z,39.07
2019-02-23T11:15:17.861Z,37.73
2019-02-23T11:17:46.457Z,38.07
2019-02-23T11:20:15.526Z,37.03
2019-02-23T11:22:43.885Z,36.00
2019-02-23T11:25:12.688Z,30.70
2019-02-23T11:27:41.276Z,30.37
2019-02-23T11:30:12.063Z,27.60
2019-02-23T11:32:40.711Z,27.50
2019-02-23T11:35:11.413Z,31.50
2019-02-23T11:37:40.115Z,31.53
2019-02-23T11:40:13.683Z,29.70
2019-02-23T11:42:41.982Z,28.60
2019-02-23T11:45:11.310Z,25.70
2019-02-23T11:47:39.594Z,24.43
2019-02-23T11:50:12.269Z,25.40
2019-02-23T11:52:43.858Z,24.40
2019-02-23T11:55:12.154Z,22.43
2019-02-23T11:57:40.799Z,22.30
2019-02-23T12:00:11.596Z,21.60
2019-02-23T12:02:51.953Z,21.70
2019-02-23T12:05:13.903Z,21.47
2019-02-23T12:07:42.466Z,21.07
2019-02-23T12:10:14.050Z,21.90
2019-02-23T12:12:42.631Z,20.63
2019-02-23T12:15:10.917Z,20.30
2019-02-23T12:17:39.227Z,21.07
2019-02-23T12:20:09.286Z,28.73
2019-02-23T12:22:37.588Z,30.90
2019-02-23T12:25:07.179Z,39.77
2019-02-23T12:27:35.491Z,43.03
2019-02-23T12:30:04.709Z,41.63
2019-02-23T12:32:33.351Z,41.10
2019-02-23T12:35:02.042Z,41.53
2019-02-23T12:37:30.731Z,39.80
2019-02-23T12:39:59.075Z,41.23
2019-02-23T12:42:27.810Z,39.23
2019-02-23T12:44:56.480Z,45.60
2019-02-23T12:47:25.060Z,47.27
2019-02-23T12:49:53.342Z,62.13
2019-02-23T12:52:27.624Z,63.43
2019-02-23T12:54:55.999Z,63.53
2019-02-23T12:57:24.332Z,63.23
2019-02-23T12:59:52.730Z,59.00
2019-02-23T13:02:21.385Z,59.40
2019-02-23T13:04:50.062Z,56.57
2019-02-23T13:07:18.755Z,54.90
2019-02-23T13:09:47.061Z,48.27
2019-02-23T13:12:27.794Z,47.33
2019-02-23T13:14:59.401Z,39.40
2019-02-23T13:17:56.575Z,37.83
2019-02-23T13:20:46.082Z,34.60
2019-02-23T13:23:48.076Z,34.77
2019-02-23T13:26:19.891Z,33.33
2019-02-23T13:29:18.994Z,32.70
2019-02-23T13:32:25.670Z,32.57
2019-02-23T13:34:57.638Z,29.77
2019-02-23T13:37:51.203Z,30.30
2019-02-23T13:40:43.134Z,29.87
2019-02-23T13:43:20.935Z,27.37
2019-02-23T13:46:09.340Z,27.30
2019-02-23T13:49:02.031Z,27.47
2019-02-23T13:51:42.675Z,26.27
2019-02-23T13:54:38.650Z,25.27
2019-02-23T13:57:21.347Z,26.60
2019-02-23T13:59:52.922Z,24.23
2019-02-23T14:02:27.732Z,23.30
2019-02-23T14:05:05.041Z,24.97
2019-02-23T14:07:48.606Z,23.93
2019-02-23T14:10:29.007Z,23.37
2019-02-23T14:13:04.337Z,23.63
2019-02-23T14:15:51.697Z,28.13
2019-02-23T14:18:40.079Z,31.53
2019-02-23T14:21:36.112Z,30.27
2019-02-23T14:24:26.108Z,28.37
2019-02-23T14:27:14.009Z,31.80
2019-02-23T14:29:51.987Z,55.30
2019-02-23T14:32:44.023Z,70.97
2019-02-23T14:35:43.311Z,37.20
2019-02-23T14:38:43.573Z,28.30
2019-02-23T14:41:42.331Z,28.67
2019-02-23T14:44:25.506Z,28.07
2019-02-23T14:47:15.037Z,27.50
2019-02-23T14:49:58.489Z,27.47
2019-02-23T14:52:33.400Z,27.13
2019-02-23T14:55:13.967Z,26.43
2019-02-23T14:58:03.739Z,25.70
2019-02-23T15:00:59.457Z,25.63
2019-02-23T15:03:50.430Z,25.57
2019-02-23T15:06:41.680Z,23.03
2019-02-23T15:09:29.418Z,24.27
2019-02-23T15:12:12.774Z,24.13
2019-02-23T15:14:44.606Z,24.37
2019-02-23T15:17:25.286Z,24.00
2019-02-23T15:20:13.246Z,24.13
2019-02-23T15:22:50.906Z,23.43
2019-02-23T15:25:44.842Z,24.33
2019-02-23T15:28:37.610Z,24.67
2019-02-23T15:31:14.574Z,23.37
2019-02-23T15:33:58.152Z,22.70
2019-02-23T15:36:38.125Z,22.90
2019-02-23T15:39:36.361Z,22.40
2019-02-23T15:42:14.462Z,22.20
2019-02-23T15:45:08.369Z,22.03
2019-02-23T15:47:43.226Z,21.67
2019-02-23T15:50:13.286Z,21.43
2019-02-23T15:52:41.866Z,20.77
2019-02-23T15:55:10.491Z,20.87
2019-02-23T15:57:39.075Z,20.97
2019-02-23T16:00:08.691Z,22.30
2019-02-23T16:02:37.084Z,20.50
2019-02-23T16:05:05.830Z,21.07
2019-02-23T16:07:34.442Z,20.43
2019-02-23T16:10:03.030Z,20.67
2019-02-23T16:12:31.627Z,20.20
2019-02-23T16:14:59.969Z,21.20
2019-02-23T16:17:28.559Z,20.47
2019-02-23T16:19:57.141Z,19.90
2019-02-23T16:22:25.747Z,21.27
2019-02-23T16:24:54.112Z,20.53
2019-02-23T16:27:22.798Z,19.80
2019-02-23T16:29:51.376Z,19.07
2019-02-23T16:32:19.960Z,18.57
2019-02-23T16:34:48.243Z,19.50
2019-02-23T16:37:16.554Z,19.00
2019-02-23T16:39:45.213Z,18.90
2019-02-23T16:42:13.897Z,17.80
2019-02-23T16:44:42.467Z,17.40
2019-02-23T16:47:11.088Z,18.57
2019-02-23T16:49:39.370Z,16.80
2019-02-23T16:52:09.267Z,17.93
2019-02-23T16:54:37.851Z,16.53
2019-02-23T16:57:06.723Z,16.40
2019-02-23T16:59:35.303Z,16.27
2019-02-23T17:02:03.703Z,17.70
2019-02-23T17:04:32.062Z,19.17
2019-02-23T17:07:00.348Z,19.37
2019-02-23T17:09:28.919Z,29.43
2019-02-23T17:11:57.499Z,26.40
2019-02-23T17:14:25.828Z,22.30
2019-02-23T17:16:54.175Z,20.30
2019-02-23T17:19:22.748Z,21.07
2019-02-23T17:21:51.074Z,20.30
2019-02-23T17:24:19.714Z,19.97
2019-02-23T17:26:48.275Z,20.53
2019-02-23T17:29:16.875Z,20.57
2019-02-23T17:31:45.192Z,18.60
2019-02-23T17:34:13.836Z,21.27
2019-02-23T17:36:42.160Z,21.30
2019-02-23T17:39:10.677Z,52.47
2019-02-23T17:41:39.010Z,117.53
2019-02-23T17:44:07.665Z,95.83
2019-02-23T17:46:36.262Z,88.77
2019-02-23T17:49:04.861Z,86.77
2019-02-23T17:51:33.178Z,84.10
2019-02-23T17:54:01.812Z,84.20
2019-02-23T17:56:30.504Z,186.17
2019-02-23T17:58:59.062Z,257.93
2019-02-23T18:01:27.761Z,234.23
2019-02-23T18:03:56.149Z,252.60
2019-02-23T18:06:24.455Z,220.23
2019-02-23T18:08:53.104Z,195.13
2019-02-23T18:11:21.701Z,180.07
2019-02-23T18:13:50.482Z,183.60
2019-02-23T18:16:18.785Z,193.33
2019-02-23T18:18:47.101Z,205.23
2019-02-23T18:21:15.396Z,208.37
2019-02-23T18:23:43.779Z,188.80
2019-02-23T18:26:20.559Z,184.23
2019-02-23T18:28:42.812Z,212.83
2019-02-23T18:31:11.503Z,246.83
2019-02-23T18:33:40.277Z,272.27
2019-02-23T18:36:08.623Z,289.37
2019-02-23T18:38:37.080Z,274.23
2019-02-23T18:41:05.402Z,283.47
2019-02-23T18:43:33.733Z,285.03
2019-02-23T18:46:02.471Z,297.20
2019-02-23T18:48:30.771Z,266.00
2019-02-23T18:50:59.435Z,240.13
2019-02-23T18:53:28.016Z,234.20
2019-02-23T18:55:56.698Z,260.33
2019-02-23T18:58:25.008Z,282.93
2019-02-23T19:00:58.839Z,324.07
2019-02-23T19:03:29.460Z,321.70
2019-02-23T19:05:58.117Z,381.17
2019-02-23T19:08:26.994Z,332.90
2019-02-23T19:10:55.883Z,314.73
2019-02-23T19:13:24.578Z,293.90
2019-02-23T19:15:53.154Z,288.73
2019-02-23T19:18:21.457Z,291.47
2019-02-23T19:20:50.151Z,272.80
2019-02-23T19:23:18.508Z,268.60
2019-02-23T19:25:47.205Z,254.87
2019-02-23T19:28:15.912Z,237.43
2019-02-23T19:30:44.688Z,230.00
2019-02-23T19:33:13.342Z,228.37
2019-02-23T19:35:41.657Z,241.67
2019-02-23T19:38:10.059Z,238.37
2019-02-23T19:40:39.051Z,251.13
2019-02-23T19:43:07.680Z,219.60
2019-02-23T19:45:36.279Z,218.87
2019-02-23T19:48:05.202Z,208.77
2019-02-23T19:50:40.165Z,212.43
2019-02-23T19:53:08.520Z,204.73
2019-02-23T19:55:37.157Z,203.03
2019-02-23T19:58:08.771Z,191.87
2019-02-23T20:00:37.060Z,189.17
2019-02-23T20:03:05.670Z,184.47
2019-02-23T20:05:34.003Z,178.83
2019-02-23T20:08:02.314Z,173.90
2019-02-23T20:10:30.705Z,166.17
2019-02-23T20:12:59.286Z,164.37
2019-02-23T20:15:27.602Z,208.37
2019-02-23T20:17:55.951Z,183.23
2019-02-23T20:20:24.522Z,179.93
2019-02-23T20:22:53.130Z,179.33
2019-02-23T20:25:23.445Z,216.50
2019-02-23T20:27:52.018Z,233.67
2019-02-23T20:30:20.351Z,249.10
2019-02-23T20:32:48.973Z,243.70
2019-02-23T20:35:17.668Z,212.70
2019-02-23T20:37:46.246Z,185.60
2019-02-23T20:40:14.561Z,190.37
2019-02-23T20:42:42.875Z,171.20
2019-02-23T20:45:11.316Z,219.13
2019-02-23T20:47:39.818Z,210.50
2019-02-23T20:50:10.395Z,168.93
2019-02-23T20:52:40.640Z,176.33
2019-02-23T20:55:09.572Z,157.93
2019-02-23T20:57:37.882Z,146.60
2019-02-23T21:00:09.956Z,156.07
2019-02-23T21:02:38.549Z,156.73
2019-02-23T21:05:09.995Z,184.57
2019-02-23T21:07:38.748Z,168.03
2019-02-23T21:10:15.575Z,155.40
2019-02-23T21:12:44.142Z,169.43
2019-02-23T21:15:13.481Z,159.03
2019-02-23T21:17:42.131Z,153.57
2019-02-23T21:20:11.339Z,147.07
2019-02-23T21:22:39.626Z,136.47
2019-02-23T21:25:08.909Z,147.50
2019-02-23T21:27:37.271Z,134.73
2019-02-23T21:30:08.205Z,135.37
2019-02-23T21:32:37.087Z,131.23
2019-02-23T21:35:07.156Z,131.17
2019-02-23T21:37:35.826Z,121.73
2019-02-23T21:40:06.660Z,111.33
2019-02-23T21:42:35.288Z,111.83
2019-02-23T21:45:04.548Z,132.77
2019-02-23T21:47:32.875Z,127.53
2019-02-23T21:50:01.607Z,123.03
2019-02-23T21:52:30.146Z,121.87
2019-02-23T21:54:58.853Z,121.87
2019-02-23T21:57:27.160Z,102.67
2019-02-23T21:59:55.829Z,97.37
2019-02-23T22:02:24.633Z,103.73
2019-02-23T22:04:53.302Z,92.63
2019-02-23T22:07:21.623Z,90.70
2019-02-23T22:09:50.174Z,88.87
2019-02-23T22:12:18.753Z,85.60
2019-02-23T22:14:47.053Z,82.57
2019-02-23T22:17:15.712Z,79.83
2019-02-23T22:19:44.425Z,74.47
2019-02-23T22:22:12.840Z,77.87
2019-02-23T22:27:11.307Z,105.67
2019-02-23T22:29:40.167Z,119.07
2019-02-23T22:32:08.551Z,110.43
2019-02-23T22:34:37.360Z,103.20
2019-02-23T22:37:06.024Z,98.00
2019-02-23T22:39:34.702Z,93.83
2019-02-23T22:42:03.288Z,89.10
2019-02-23T22:44:31.717Z,81.90
2019-02-23T22:47:00.006Z,79.40
2019-02-23T22:49:28.332Z,81.73
2019-02-23T22:51:56.737Z,78.97
2019-02-23T22:54:25.318Z,75.23
2019-02-23T22:56:53.966Z,72.03
2019-02-23T22:59:22.541Z,68.20
2019-02-23T23:01:50.898Z,60.33
2019-02-23T23:04:19.524Z,56.77
2019-02-23T23:06:47.824Z,55.10
2019-02-23T23:09:20.686Z,66.43
2019-02-23T23:11:48.992Z,67.00
2019-02-23T23:14:17.345Z,65.97
2019-02-23T23:16:45.929Z,65.67
2019-02-23T23:19:14.236Z,64.07
2019-02-23T23:21:42.785Z,69.17
2019-02-23T23:24:11.098Z,60.23
2019-02-23T23:26:39.407Z,69.27
2019-02-23T23:29:07.700Z,66.00
2019-02-23T23:31:36.066Z,65.73
2019-02-23T23:34:04.388Z,62.10
2019-02-23T23:36:32.701Z,62.27
2019-02-23T23:39:01.245Z,58.70
2019-02-23T23:41:29.805Z,54.00
2019-02-23T23:43:58.395Z,54.17
2019-02-23T23:46:27.055Z,51.27
2019-02-23T23:48:55.644Z,53.57
2019-02-23T23:51:24.331Z,53.10
2019-02-23T23:53:52.617Z,45.80
2019-02-23T23:56:20.927Z,49.10
2019-02-23T23:58:49.219Z,43.40
